LavenderCAM.net
Leatherhead Weather
 
Leatherhead Weather
 
 





Aviation weather for

London Heathrow (EGLL) and London Gatwick (EGKK)



London Heathrow (EGLL) METAR / Surface Actual
London / Heathrow Airport, United Kingdom (EGLL) 51-29N 000-27W 0M
Oct 21, 2021 - 09:50 PM EDT / 2021.10.22 0150 UTC
Wind: from the W (260 degrees) at 8 MPH (7 KT):0
Visibility: greater than 7 mile(s):0
Temperature: 44 F (7 C)
Dew Point: 39 F (4 C)
Relative Humidity: 81%
Pressure (altimeter): 30.06 in. Hg (1018 hPa)
ob: EGLL 220150Z AUTO 26007KT 9999 NCD 07/04 Q1018
cycle: 2
London Heathrow (EGLL) TAF / Forecast
2021/10/21 18:09
TAF EGLL 211655Z 2118/2224 29007KT 9999 FEW030


London Gatwick (EGKK) METAR / Surface Actual
London / Gatwick Airport, United Kingdom (EGKK) 51-09N 000-11W 0M
Oct 21, 2021 - 09:50 PM EDT / 2021.10.22 0150 UTC
Wind: from the WSW (250 degrees) at 5 MPH (4 KT):0
Visibility: greater than 7 mile(s):0
Temperature: 39 F (4 C)
Dew Point: 37 F (3 C)
Relative Humidity: 93%
Pressure (altimeter): 30.09 in. Hg (1019 hPa)
ob: EGKK 220150Z 25004KT CAVOK 04/03 Q1019
cycle: 2
London Gatwick (EGKK) TAF / Forecast
2021/10/21 18:09
TAF EGKK 211657Z 2118/2224 29006KT 9999 FEW045